sensor_id;sensor_type;location;lat;lon;timestamp;P1;durP1;ratioP1;P2;durP2;ratioP2
42338;SDS011;27993;45.392;10.918;2024-02-23T00:01:53;10.00;;;3.97;;
42338;SDS011;27993;45.392;10.918;2024-02-23T00:04:24;5.63;;;3.63;;
42338;SDS011;27993;45.392;10.918;2024-02-23T00:06:54;4.60;;;3.17;;
42338;SDS011;27993;45.392;10.918;2024-02-23T00:09:25;11.70;;;3.87;;
42338;SDS011;27993;45.392;10.918;2024-02-23T00:11:56;4.93;;;2.87;;
42338;SDS011;27993;45.392;10.918;2024-02-23T00:14:27;7.73;;;4.27;;
42338;SDS011;27993;45.392;10.918;2024-02-23T00:16:58;12.83;;;5.20;;
42338;SDS011;27993;45.392;10.918;2024-02-23T00:19:30;8.07;;;4.07;;
42338;SDS011;27993;45.392;10.918;2024-02-23T00:22:01;5.32;;;3.85;;
42338;SDS011;27993;45.392;10.918;2024-02-23T00:24:32;8.20;;;4.07;;
42338;SDS011;27993;45.392;10.918;2024-02-23T00:27:06;6.87;;;3.70;;
42338;SDS011;27993;45.392;10.918;2024-02-23T00:29:37;7.93;;;4.13;;
42338;SDS011;27993;45.392;10.918;2024-02-23T00:32:08;11.07;;;3.80;;
42338;SDS011;27993;45.392;10.918;2024-02-23T00:34:38;14.47;;;4.67;;
42338;SDS011;27993;45.392;10.918;2024-02-23T00:37:09;7.27;;;3.47;;
42338;SDS011;27993;45.392;10.918;2024-02-23T00:39:39;5.57;;;3.53;;
42338;SDS011;27993;45.392;10.918;2024-02-23T00:42:10;8.23;;;3.57;;
42338;SDS011;27993;45.392;10.918;2024-02-23T00:44:44;6.53;;;3.97;;
42338;SDS011;27993;45.392;10.918;2024-02-23T00:47:14;7.05;;;3.90;;
42338;SDS011;27993;45.392;10.918;2024-02-23T00:49:45;8.53;;;3.80;;
42338;SDS011;27993;45.392;10.918;2024-02-23T00:52:16;5.83;;;3.30;;
42338;SDS011;27993;45.392;10.918;2024-02-23T00:54:46;4.97;;;3.27;;
42338;SDS011;27993;45.392;10.918;2024-02-23T00:57:17;6.57;;;3.22;;
42338;SDS011;27993;45.392;10.918;2024-02-23T00:59:51;9.15;;;3.60;;
42338;SDS011;27993;45.392;10.918;2024-02-23T01:02:22;8.60;;;3.33;;
42338;SDS011;27993;45.392;10.918;2024-02-23T01:04:53;6.03;;;3.23;;
42338;SDS011;27993;45.392;10.918;2024-02-23T01:07:28;6.53;;;3.50;;
42338;SDS011;27993;45.392;10.918;2024-02-23T01:09:59;7.30;;;3.30;;
42338;SDS011;27993;45.392;10.918;2024-02-23T01:12:29;4.77;;;2.97;;
42338;SDS011;27993;45.392;10.918;2024-02-23T01:15:00;5.90;;;3.53;;
42338;SDS011;27993;45.392;10.918;2024-02-23T01:17:30;4.73;;;3.17;;
42338;SDS011;27993;45.392;10.918;2024-02-23T01:20:01;8.10;;;2.70;;
42338;SDS011;27993;45.392;10.918;2024-02-23T01:22:32;5.17;;;2.70;;
42338;SDS011;27993;45.392;10.918;2024-02-23T01:25:02;4.00;;;2.70;;
42338;SDS011;27993;45.392;10.918;2024-02-23T01:27:33;3.85;;;2.28;;
42338;SDS011;27993;45.392;10.918;2024-02-23T01:30:04;3.90;;;2.33;;
42338;SDS011;27993;45.392;10.918;2024-02-23T01:32:35;6.50;;;3.42;;
42338;SDS011;27993;45.392;10.918;2024-02-23T01:35:08;5.90;;;3.42;;
42338;SDS011;27993;45.392;10.918;2024-02-23T01:37:39;5.10;;;2.80;;
42338;SDS011;27993;45.392;10.918;2024-02-23T01:40:09;23.77;;;2.77;;
42338;SDS011;27993;45.392;10.918;2024-02-23T01:42:40;6.03;;;2.50;;
42338;SDS011;27993;45.392;10.918;2024-02-23T01:45:10;7.77;;;2.50;;
42338;SDS011;27993;45.392;10.918;2024-02-23T01:47:41;3.87;;;2.03;;
42338;SDS011;27993;45.392;10.918;2024-02-23T01:50:12;10.27;;;2.93;;
42338;SDS011;27993;45.392;10.918;2024-02-23T01:52:43;5.17;;;2.50;;
42338;SDS011;27993;45.392;10.918;2024-02-23T01:55:13;5.13;;;2.40;;
42338;SDS011;27993;45.392;10.918;2024-02-23T01:57:44;8.25;;;2.17;;
42338;SDS011;27993;45.392;10.918;2024-02-23T02:00:17;4.45;;;2.05;;
42338;SDS011;27993;45.392;10.918;2024-02-23T02:02:51;3.08;;;1.95;;
42338;SDS011;27993;45.392;10.918;2024-02-23T02:05:21;3.07;;;2.30;;
42338;SDS011;27993;45.392;10.918;2024-02-23T02:07:53;5.17;;;1.90;;
42338;SDS011;27993;45.392;10.918;2024-02-23T02:10:28;4.82;;;2.75;;
42338;SDS011;27993;45.392;10.918;2024-02-23T02:13:02;7.80;;;2.83;;
42338;SDS011;27993;45.392;10.918;2024-02-23T02:15:34;4.22;;;2.15;;
42338;SDS011;27993;45.392;10.918;2024-02-23T02:18:05;2.87;;;1.80;;
42338;SDS011;27993;45.392;10.918;2024-02-23T02:20:36;3.23;;;1.80;;
42338;SDS011;27993;45.392;10.918;2024-02-23T02:23:09;3.20;;;1.95;;
42338;SDS011;27993;45.392;10.918;2024-02-23T02:25:40;3.70;;;1.77;;
42338;SDS011;27993;45.392;10.918;2024-02-23T02:28:11;1.97;;;1.60;;
42338;SDS011;27993;45.392;10.918;2024-02-23T02:30:42;20.17;;;2.80;;
42338;SDS011;27993;45.392;10.918;2024-02-23T02:33:12;4.33;;;1.83;;
42338;SDS011;27993;45.392;10.918;2024-02-23T02:35:43;3.67;;;2.10;;
42338;SDS011;27993;45.392;10.918;2024-02-23T02:38:13;3.40;;;2.00;;
42338;SDS011;27993;45.392;10.918;2024-02-23T02:40:44;3.87;;;2.30;;
42338;SDS011;27993;45.392;10.918;2024-02-23T02:43:15;5.67;;;2.60;;
42338;SDS011;27993;45.392;10.918;2024-02-23T02:45:48;3.90;;;2.37;;
42338;SDS011;27993;45.392;10.918;2024-02-23T02:48:22;7.53;;;2.20;;
42338;SDS011;27993;45.392;10.918;2024-02-23T02:50:53;4.03;;;2.03;;
42338;SDS011;27993;45.392;10.918;2024-02-23T02:53:24;6.70;;;2.40;;
42338;SDS011;27993;45.392;10.918;2024-02-23T02:55:55;3.93;;;2.27;;
42338;SDS011;27993;45.392;10.918;2024-02-23T02:58:25;2.93;;;2.03;;
42338;SDS011;27993;45.392;10.918;2024-02-23T03:00:56;6.97;;;1.97;;
42338;SDS011;27993;45.392;10.918;2024-02-23T03:03:26;4.60;;;2.27;;
42338;SDS011;27993;45.392;10.918;2024-02-23T03:05:57;3.23;;;1.97;;
42338;SDS011;27993;45.392;10.918;2024-02-23T03:08:27;7.43;;;2.00;;
42338;SDS011;27993;45.392;10.918;2024-02-23T03:10:58;6.83;;;2.17;;
42338;SDS011;27993;45.392;10.918;2024-02-23T03:13:29;2.90;;;1.60;;
42338;SDS011;27993;45.392;10.918;2024-02-23T03:16:01;5.65;;;1.90;;
42338;SDS011;27993;45.392;10.918;2024-02-23T03:18:32;7.03;;;2.07;;
42338;SDS011;27993;45.392;10.918;2024-02-23T03:21:02;2.73;;;1.43;;
42338;SDS011;27993;45.392;10.918;2024-02-23T03:23:34;5.95;;;1.85;;
42338;SDS011;27993;45.392;10.918;2024-02-23T03:26:06;1.93;;;1.50;;
42338;SDS011;27993;45.392;10.918;2024-02-23T03:28:37;1.67;;;1.48;;
42338;SDS011;27993;45.392;10.918;2024-02-23T03:31:08;3.27;;;2.20;;
42338;SDS011;27993;45.392;10.918;2024-02-23T03:33:38;2.73;;;1.60;;
42338;SDS011;27993;45.392;10.918;2024-02-23T03:36:09;8.03;;;2.63;;
42338;SDS011;27993;45.392;10.918;2024-02-23T03:38:39;5.40;;;2.20;;
42338;SDS011;27993;45.392;10.918;2024-02-23T03:41:10;2.53;;;1.73;;
42338;SDS011;27993;45.392;10.918;2024-02-23T03:43:41;4.50;;;1.80;;
42338;SDS011;27993;45.392;10.918;2024-02-23T03:46:11;2.83;;;1.50;;
42338;SDS011;27993;45.392;10.918;2024-02-23T03:48:42;5.40;;;2.17;;
42338;SDS011;27993;45.392;10.918;2024-02-23T03:51:12;6.60;;;2.17;;
42338;SDS011;27993;45.392;10.918;2024-02-23T03:53:43;2.47;;;1.93;;
42338;SDS011;27993;45.392;10.918;2024-02-23T03:56:13;10.30;;;1.90;;
42338;SDS011;27993;45.392;10.918;2024-02-23T03:58:47;7.30;;;2.45;;
42338;SDS011;27993;45.392;10.918;2024-02-23T04:01:20;4.90;;;2.40;;
42338;SDS011;27993;45.392;10.918;2024-02-23T04:03:51;4.57;;;2.15;;
42338;SDS011;27993;45.392;10.918;2024-02-23T04:06:21;1.80;;;1.60;;
42338;SDS011;27993;45.392;10.918;2024-02-23T04:08:52;10.60;;;2.83;;
42338;SDS011;27993;45.392;10.918;2024-02-23T04:11:22;4.73;;;2.13;;
42338;SDS011;27993;45.392;10.918;2024-02-23T04:13:53;8.73;;;3.40;;
42338;SDS011;27993;45.392;10.918;2024-02-23T04:16:24;6.93;;;3.27;;
42338;SDS011;27993;45.392;10.918;2024-02-23T04:18:55;5.67;;;3.33;;
42338;SDS011;27993;45.392;10.918;2024-02-23T04:21:29;6.43;;;2.72;;
42338;SDS011;27993;45.392;10.918;2024-02-23T04:24:00;5.17;;;3.57;;
42338;SDS011;27993;45.392;10.918;2024-02-23T04:26:30;5.10;;;3.27;;
42338;SDS011;27993;45.392;10.918;2024-02-23T04:29:01;3.20;;;2.20;;
42338;SDS011;27993;45.392;10.918;2024-02-23T04:31:32;4.57;;;3.03;;
42338;SDS011;27993;45.392;10.918;2024-02-23T04:34:02;7.70;;;3.63;;
42338;SDS011;27993;45.392;10.918;2024-02-23T04:36:33;8.90;;;3.87;;
42338;SDS011;27993;45.392;10.918;2024-02-23T04:39:03;5.73;;;2.73;;
42338;SDS011;27993;45.392;10.918;2024-02-23T04:41:34;5.80;;;2.77;;
42338;SDS011;27993;45.392;10.918;2024-02-23T04:44:05;2.10;;;1.40;;
42338;SDS011;27993;45.392;10.918;2024-02-23T04:46:35;1.33;;;1.20;;
42338;SDS011;27993;45.392;10.918;2024-02-23T04:49:06;5.30;;;2.43;;
42338;SDS011;27993;45.392;10.918;2024-02-23T04:51:36;6.07;;;3.37;;
42338;SDS011;27993;45.392;10.918;2024-02-23T04:54:07;2.83;;;1.87;;
42338;SDS011;27993;45.392;10.918;2024-02-23T04:56:37;10.20;;;2.97;;
42338;SDS011;27993;45.392;10.918;2024-02-23T04:59:08;3.60;;;2.43;;
42338;SDS011;27993;45.392;10.918;2024-02-23T05:01:39;4.97;;;2.93;;
42338;SDS011;27993;45.392;10.918;2024-02-23T05:04:10;6.07;;;2.60;;
42338;SDS011;27993;45.392;10.918;2024-02-23T05:06:40;2.77;;;1.73;;
42338;SDS011;27993;45.392;10.918;2024-02-23T05:09:12;4.60;;;3.25;;
42338;SDS011;27993;45.392;10.918;2024-02-23T05:11:43;5.62;;;3.17;;
42338;SDS011;27993;45.392;10.918;2024-02-23T05:14:15;5.03;;;2.83;;
42338;SDS011;27993;45.392;10.918;2024-02-23T05:16:46;3.23;;;2.53;;
42338;SDS011;27993;45.392;10.918;2024-02-23T05:19:17;5.93;;;1.57;;
42338;SDS011;27993;45.392;10.918;2024-02-23T05:21:47;2.70;;;1.23;;
42338;SDS011;27993;45.392;10.918;2024-02-23T05:24:18;6.47;;;3.57;;
42338;SDS011;27993;45.392;10.918;2024-02-23T05:26:49;6.17;;;2.93;;
42338;SDS011;27993;45.392;10.918;2024-02-23T05:29:19;8.63;;;3.70;;
42338;SDS011;27993;45.392;10.918;2024-02-23T05:31:52;7.65;;;2.70;;
42338;SDS011;27993;45.392;10.918;2024-02-23T05:34:23;7.85;;;3.67;;
42338;SDS011;27993;45.392;10.918;2024-02-23T05:36:53;5.77;;;2.63;;
42338;SDS011;27993;45.392;10.918;2024-02-23T05:39:24;8.13;;;3.20;;
42338;SDS011;27993;45.392;10.918;2024-02-23T05:41:55;7.67;;;3.03;;
42338;SDS011;27993;45.392;10.918;2024-02-23T05:44:25;7.87;;;3.20;;
42338;SDS011;27993;45.392;10.918;2024-02-23T05:46:56;6.20;;;2.90;;
42338;SDS011;27993;45.392;10.918;2024-02-23T05:49:27;4.10;;;2.30;;
42338;SDS011;27993;45.392;10.918;2024-02-23T05:51:57;8.03;;;2.80;;
42338;SDS011;27993;45.392;10.918;2024-02-23T05:54:28;7.43;;;2.87;;
42338;SDS011;27993;45.392;10.918;2024-02-23T05:56:59;6.50;;;2.90;;
42338;SDS011;27993;45.392;10.918;2024-02-23T05:59:29;4.43;;;2.77;;
42338;SDS011;27993;45.392;10.918;2024-02-23T06:02:00;4.63;;;2.37;;
42338;SDS011;27993;45.392;10.918;2024-02-23T06:04:30;6.80;;;3.73;;
42338;SDS011;27993;45.392;10.918;2024-02-23T06:07:01;3.77;;;2.03;;
42338;SDS011;27993;45.392;10.918;2024-02-23T06:09:32;6.90;;;3.13;;
42338;SDS011;27993;45.392;10.918;2024-02-23T06:12:02;3.53;;;1.63;;
42338;SDS011;27993;45.392;10.918;2024-02-23T06:14:33;5.57;;;3.57;;
42338;SDS011;27993;45.392;10.918;2024-02-23T06:17:04;6.97;;;2.70;;
42338;SDS011;27993;45.392;10.918;2024-02-23T06:19:36;7.07;;;2.78;;
42338;SDS011;27993;45.392;10.918;2024-02-23T06:22:07;8.90;;;4.07;;
42338;SDS011;27993;45.392;10.918;2024-02-23T06:24:40;4.70;;;3.10;;
42338;SDS011;27993;45.392;10.918;2024-02-23T06:27:10;10.23;;;2.80;;
42338;SDS011;27993;45.392;10.918;2024-02-23T06:29:41;3.20;;;2.10;;
42338;SDS011;27993;45.392;10.918;2024-02-23T06:32:11;6.90;;;3.33;;
42338;SDS011;27993;45.392;10.918;2024-02-23T06:34:42;6.10;;;3.40;;
42338;SDS011;27993;45.392;10.918;2024-02-23T06:37:16;3.62;;;2.30;;
42338;SDS011;27993;45.392;10.918;2024-02-23T06:39:47;5.03;;;2.97;;
42338;SDS011;27993;45.392;10.918;2024-02-23T06:42:24;10.10;;;3.03;;
42338;SDS011;27993;45.392;10.918;2024-02-23T06:44:55;3.58;;;2.72;;
42338;SDS011;27993;45.392;10.918;2024-02-23T06:47:26;7.95;;;3.33;;
42338;SDS011;27993;45.392;10.918;2024-02-23T06:49:57;15.03;;;4.87;;
42338;SDS011;27993;45.392;10.918;2024-02-23T06:52:27;7.17;;;3.70;;
42338;SDS011;27993;45.392;10.918;2024-02-23T06:54:58;11.00;;;3.60;;
42338;SDS011;27993;45.392;10.918;2024-02-23T06:57:29;6.87;;;4.13;;
42338;SDS011;27993;45.392;10.918;2024-02-23T07:00:01;12.05;;;4.37;;
42338;SDS011;27993;45.392;10.918;2024-02-23T07:02:32;6.07;;;3.65;;
42338;SDS011;27993;45.392;10.918;2024-02-23T07:05:07;10.60;;;3.28;;
42338;SDS011;27993;45.392;10.918;2024-02-23T07:07:38;3.83;;;2.50;;
42338;SDS011;27993;45.392;10.918;2024-02-23T07:12:42;8.50;;;4.37;;
42338;SDS011;27993;45.392;10.918;2024-02-23T07:15:14;6.85;;;3.37;;
42338;SDS011;27993;45.392;10.918;2024-02-23T07:17:45;7.97;;;4.03;;
42338;SDS011;27993;45.392;10.918;2024-02-23T07:20:16;7.87;;;3.73;;
42338;SDS011;27993;45.392;10.918;2024-02-23T07:22:46;5.83;;;3.53;;
42338;SDS011;27993;45.392;10.918;2024-02-23T07:25:18;5.35;;;3.33;;
42338;SDS011;27993;45.392;10.918;2024-02-23T07:27:51;5.97;;;2.92;;
42338;SDS011;27993;45.392;10.918;2024-02-23T07:30:22;11.00;;;3.53;;
42338;SDS011;27993;45.392;10.918;2024-02-23T07:32:53;14.97;;;3.90;;
42338;SDS011;27993;45.392;10.918;2024-02-23T07:35:24;22.27;;;4.27;;
42338;SDS011;27993;45.392;10.918;2024-02-23T07:37:55;5.63;;;3.20;;
42338;SDS011;27993;45.392;10.918;2024-02-23T07:40:25;7.62;;;3.08;;
42338;SDS011;27993;45.392;10.918;2024-02-23T07:42:56;19.00;;;4.00;;
42338;SDS011;27993;45.392;10.918;2024-02-23T07:45:27;4.10;;;3.13;;
42338;SDS011;27993;45.392;10.918;2024-02-23T07:47:57;8.17;;;4.27;;
42338;SDS011;27993;45.392;10.918;2024-02-23T07:50:28;9.47;;;3.53;;
42338;SDS011;27993;45.392;10.918;2024-02-23T07:52:58;7.07;;;3.17;;
42338;SDS011;27993;45.392;10.918;2024-02-23T07:55:29;10.73;;;3.40;;
42338;SDS011;27993;45.392;10.918;2024-02-23T07:58:00;7.93;;;3.53;;
42338;SDS011;27993;45.392;10.918;2024-02-23T08:00:31;7.87;;;4.25;;
42338;SDS011;27993;45.392;10.918;2024-02-23T08:03:02;5.43;;;3.03;;
42338;SDS011;27993;45.392;10.918;2024-02-23T08:05:32;10.83;;;5.30;;
42338;SDS011;27993;45.392;10.918;2024-02-23T08:08:03;12.17;;;4.03;;
42338;SDS011;27993;45.392;10.918;2024-02-23T08:10:34;5.23;;;2.73;;
42338;SDS011;27993;45.392;10.918;2024-02-23T08:13:07;11.47;;;4.70;;
42338;SDS011;27993;45.392;10.918;2024-02-23T08:15:40;9.55;;;3.55;;
42338;SDS011;27993;45.392;10.918;2024-02-23T08:18:13;11.15;;;2.97;;
42338;SDS011;27993;45.392;10.918;2024-02-23T08:20:44;9.33;;;3.27;;
42338;SDS011;27993;45.392;10.918;2024-02-23T08:23:14;6.37;;;3.77;;
42338;SDS011;27993;45.392;10.918;2024-02-23T08:25:45;6.00;;;3.50;;
42338;SDS011;27993;45.392;10.918;2024-02-23T08:28:17;6.10;;;3.08;;
42338;SDS011;27993;45.392;10.918;2024-02-23T08:30:47;10.77;;;3.60;;
42338;SDS011;27993;45.392;10.918;2024-02-23T08:33:18;10.60;;;4.13;;
42338;SDS011;27993;45.392;10.918;2024-02-23T08:35:49;9.87;;;3.97;;
42338;SDS011;27993;45.392;10.918;2024-02-23T08:38:22;5.70;;;3.53;;
42338;SDS011;27993;45.392;10.918;2024-02-23T08:40:53;15.63;;;4.05;;
42338;SDS011;27993;45.392;10.918;2024-02-23T08:43:24;11.33;;;3.80;;
42338;SDS011;27993;45.392;10.918;2024-02-23T08:45:54;11.93;;;4.17;;
42338;SDS011;27993;45.392;10.918;2024-02-23T08:48:25;8.00;;;4.33;;
42338;SDS011;27993;45.392;10.918;2024-02-23T08:50:55;9.67;;;4.73;;
42338;SDS011;27993;45.392;10.918;2024-02-23T08:53:26;7.20;;;3.40;;
42338;SDS011;27993;45.392;10.918;2024-02-23T08:55:56;5.47;;;3.77;;
42338;SDS011;27993;45.392;10.918;2024-02-23T08:58:27;8.93;;;4.10;;
42338;SDS011;27993;45.392;10.918;2024-02-23T09:00:58;8.13;;;3.17;;
42338;SDS011;27993;45.392;10.918;2024-02-23T09:03:28;4.77;;;2.17;;
42338;SDS011;27993;45.392;10.918;2024-02-23T09:05:59;4.70;;;3.27;;
42338;SDS011;27993;45.392;10.918;2024-02-23T09:08:30;8.10;;;3.87;;
42338;SDS011;27993;45.392;10.918;2024-02-23T09:11:00;5.90;;;3.33;;
42338;SDS011;27993;45.392;10.918;2024-02-23T09:13:31;7.80;;;3.15;;
42338;SDS011;27993;45.392;10.918;2024-02-23T09:16:02;10.83;;;4.10;;
42338;SDS011;27993;45.392;10.918;2024-02-23T09:18:33;19.33;;;3.97;;
42338;SDS011;27993;45.392;10.918;2024-02-23T09:21:04;4.20;;;3.00;;
42338;SDS011;27993;45.392;10.918;2024-02-23T09:23:34;8.70;;;4.20;;
42338;SDS011;27993;45.392;10.918;2024-02-23T09:26:08;10.10;;;3.57;;
42338;SDS011;27993;45.392;10.918;2024-02-23T09:28:40;8.82;;;3.87;;
42338;SDS011;27993;45.392;10.918;2024-02-23T09:31:12;6.93;;;3.30;;
42338;SDS011;27993;45.392;10.918;2024-02-23T09:33:42;8.60;;;4.27;;
42338;SDS011;27993;45.392;10.918;2024-02-23T09:36:14;8.52;;;3.53;;
42338;SDS011;27993;45.392;10.918;2024-02-23T09:38:44;7.77;;;3.80;;
42338;SDS011;27993;45.392;10.918;2024-02-23T09:41:22;11.68;;;3.95;;
42338;SDS011;27993;45.392;10.918;2024-02-23T09:43:54;5.87;;;3.47;;
42338;SDS011;27993;45.392;10.918;2024-02-23T09:46:28;7.82;;;3.67;;
42338;SDS011;27993;45.392;10.918;2024-02-23T09:48:59;6.75;;;3.60;;
42338;SDS011;27993;45.392;10.918;2024-02-23T09:51:30;2.80;;;2.03;;
42338;SDS011;27993;45.392;10.918;2024-02-23T09:54:03;6.50;;;3.70;;
42338;SDS011;27993;45.392;10.918;2024-02-23T09:56:34;6.57;;;3.63;;
42338;SDS011;27993;45.392;10.918;2024-02-23T09:59:07;8.00;;;3.05;;
42338;SDS011;27993;45.392;10.918;2024-02-23T10:01:37;11.17;;;4.10;;
42338;SDS011;27993;45.392;10.918;2024-02-23T10:04:08;9.77;;;3.97;;
42338;SDS011;27993;45.392;10.918;2024-02-23T10:06:39;11.40;;;3.20;;
42338;SDS011;27993;45.392;10.918;2024-02-23T10:09:09;6.77;;;2.47;;
42338;SDS011;27993;45.392;10.918;2024-02-23T10:11:42;7.70;;;3.25;;
42338;SDS011;27993;45.392;10.918;2024-02-23T10:14:13;5.53;;;3.20;;
42338;SDS011;27993;45.392;10.918;2024-02-23T10:16:43;5.40;;;3.47;;
42338;SDS011;27993;45.392;10.918;2024-02-23T10:19:14;4.47;;;2.90;;
42338;SDS011;27993;45.392;10.918;2024-02-23T10:21:45;8.93;;;4.00;;
42338;SDS011;27993;45.392;10.918;2024-02-23T10:24:15;15.35;;;3.37;;
42338;SDS011;27993;45.392;10.918;2024-02-23T10:26:47;11.05;;;3.80;;
42338;SDS011;27993;45.392;10.918;2024-02-23T10:29:17;6.30;;;3.93;;
42338;SDS011;27993;45.392;10.918;2024-02-23T10:31:49;15.43;;;6.57;;
42338;SDS011;27993;45.392;10.918;2024-02-23T10:34:22;4.57;;;2.47;;
42338;SDS011;27993;45.392;10.918;2024-02-23T10:36:57;8.13;;;4.05;;
42338;SDS011;27993;45.392;10.918;2024-02-23T10:39:28;5.03;;;2.97;;
42338;SDS011;27993;45.392;10.918;2024-02-23T10:42:02;7.85;;;3.87;;
42338;SDS011;27993;45.392;10.918;2024-02-23T10:44:34;10.32;;;3.67;;
42338;SDS011;27993;45.392;10.918;2024-02-23T10:47:06;7.32;;;5.20;;
42338;SDS011;27993;45.392;10.918;2024-02-23T10:49:38;16.50;;;7.97;;
42338;SDS011;27993;45.392;10.918;2024-02-23T10:52:10;9.25;;;5.85;;
42338;SDS011;27993;45.392;10.918;2024-02-23T10:54:45;17.67;;;6.68;;
42338;SDS011;27993;45.392;10.918;2024-02-23T10:57:17;12.05;;;5.93;;
42338;SDS011;27993;45.392;10.918;2024-02-23T10:59:48;8.90;;;5.12;;
42338;SDS011;27993;45.392;10.918;2024-02-23T11:02:19;6.82;;;4.57;;
42338;SDS011;27993;45.392;10.918;2024-02-23T11:04:51;7.20;;;3.97;;
42338;SDS011;27993;45.392;10.918;2024-02-23T11:07:25;4.60;;;3.40;;
42338;SDS011;27993;45.392;10.918;2024-02-23T11:10:01;7.87;;;4.90;;
42338;SDS011;27993;45.392;10.918;2024-02-23T11:12:34;8.00;;;3.83;;
42338;SDS011;27993;45.392;10.918;2024-02-23T11:15:05;7.85;;;4.40;;
42338;SDS011;27993;45.392;10.918;2024-02-23T11:17:36;10.70;;;4.57;;
42338;SDS011;27993;45.392;10.918;2024-02-23T11:20:09;5.90;;;4.07;;
42338;SDS011;27993;45.392;10.918;2024-02-23T11:22:44;9.48;;;4.18;;
42338;SDS011;27993;45.392;10.918;2024-02-23T11:25:26;8.20;;;5.28;;
42338;SDS011;27993;45.392;10.918;2024-02-23T11:27:57;3.87;;;3.00;;
42338;SDS011;27993;45.392;10.918;2024-02-23T11:30:28;8.10;;;3.50;;
42338;SDS011;27993;45.392;10.918;2024-02-23T11:33:01;11.10;;;4.57;;
42338;SDS011;27993;45.392;10.918;2024-02-23T11:35:32;8.50;;;4.30;;
42338;SDS011;27993;45.392;10.918;2024-02-23T11:38:02;5.60;;;3.80;;
42338;SDS011;27993;45.392;10.918;2024-02-23T11:40:35;10.40;;;5.68;;
42338;SDS011;27993;45.392;10.918;2024-02-23T11:43:07;16.25;;;6.75;;
42338;SDS011;27993;45.392;10.918;2024-02-23T11:45:38;9.57;;;5.53;;
42338;SDS011;27993;45.392;10.918;2024-02-23T11:48:10;8.07;;;4.95;;
42338;SDS011;27993;45.392;10.918;2024-02-23T11:50:41;11.03;;;5.77;;
42338;SDS011;27993;45.392;10.918;2024-02-23T11:53:12;9.83;;;4.10;;
42338;SDS011;27993;45.392;10.918;2024-02-23T11:55:42;8.53;;;4.27;;
42338;SDS011;27993;45.392;10.918;2024-02-23T11:58:13;7.03;;;4.23;;
42338;SDS011;27993;45.392;10.918;2024-02-23T12:00:45;10.45;;;5.47;;
42338;SDS011;27993;45.392;10.918;2024-02-23T12:03:15;6.07;;;3.97;;
42338;SDS011;27993;45.392;10.918;2024-02-23T12:08:19;7.05;;;3.78;;
42338;SDS011;27993;45.392;10.918;2024-02-23T12:10:50;7.13;;;3.73;;
42338;SDS011;27993;45.392;10.918;2024-02-23T12:13:21;5.60;;;4.17;;
42338;SDS011;27993;45.392;10.918;2024-02-23T12:15:53;9.23;;;3.70;;
42338;SDS011;27993;45.392;10.918;2024-02-23T12:18:23;5.78;;;3.50;;
42338;SDS011;27993;45.392;10.918;2024-02-23T12:21:00;5.65;;;3.80;;
42338;SDS011;27993;45.392;10.918;2024-02-23T12:26:18;9.95;;;3.08;;
42338;SDS011;27993;45.392;10.918;2024-02-23T12:28:49;4.80;;;2.97;;
42338;SDS011;27993;45.392;10.918;2024-02-23T12:31:23;5.60;;;2.97;;
42338;SDS011;27993;45.392;10.918;2024-02-23T12:33:56;4.55;;;2.72;;
42338;SDS011;27993;45.392;10.918;2024-02-23T12:38:59;11.70;;;3.42;;
42338;SDS011;27993;45.392;10.918;2024-02-23T12:41:29;4.50;;;3.40;;
42338;SDS011;27993;45.392;10.918;2024-02-23T12:44:00;5.30;;;3.20;;
42338;SDS011;27993;45.392;10.918;2024-02-23T12:46:31;5.07;;;3.57;;
42338;SDS011;27993;45.392;10.918;2024-02-23T12:49:04;5.20;;;2.87;;
42338;SDS011;27993;45.392;10.918;2024-02-23T12:51:34;4.47;;;2.80;;
42338;SDS011;27993;45.392;10.918;2024-02-23T12:54:05;5.80;;;4.00;;
42338;SDS011;27993;45.392;10.918;2024-02-23T12:56:36;4.87;;;3.17;;
42338;SDS011;27993;45.392;10.918;2024-02-23T12:59:06;4.57;;;2.90;;
42338;SDS011;27993;45.392;10.918;2024-02-23T13:01:39;5.82;;;2.83;;
42338;SDS011;27993;45.392;10.918;2024-02-23T13:04:10;17.30;;;3.67;;
42338;SDS011;27993;45.392;10.918;2024-02-23T13:06:41;4.20;;;2.78;;
42338;SDS011;27993;45.392;10.918;2024-02-23T13:09:12;5.93;;;2.67;;
42338;SDS011;27993;45.392;10.918;2024-02-23T13:11:44;2.85;;;1.90;;
42338;SDS011;27993;45.392;10.918;2024-02-23T13:14:16;5.50;;;2.45;;
42338;SDS011;27993;45.392;10.918;2024-02-23T13:16:47;3.50;;;2.43;;
42338;SDS011;27993;45.392;10.918;2024-02-23T13:19:18;15.73;;;2.63;;
42338;SDS011;27993;45.392;10.918;2024-02-23T13:21:51;3.37;;;2.53;;
42338;SDS011;27993;45.392;10.918;2024-02-23T13:24:22;3.92;;;2.42;;
42338;SDS011;27993;45.392;10.918;2024-02-23T13:26:53;7.50;;;3.03;;
42338;SDS011;27993;45.392;10.918;2024-02-23T13:29:23;3.53;;;2.30;;
42338;SDS011;27993;45.392;10.918;2024-02-23T13:31:54;7.53;;;2.97;;
42338;SDS011;27993;45.392;10.918;2024-02-23T13:34:24;6.60;;;2.50;;
42338;SDS011;27993;45.392;10.918;2024-02-23T13:36:55;3.90;;;2.83;;
42338;SDS011;27993;45.392;10.918;2024-02-23T13:39:25;4.40;;;3.07;;
42338;SDS011;27993;45.392;10.918;2024-02-23T13:41:56;4.00;;;2.93;;
42338;SDS011;27993;45.392;10.918;2024-02-23T13:44:27;3.90;;;3.13;;
42338;SDS011;27993;45.392;10.918;2024-02-23T13:46:57;5.77;;;3.07;;
42338;SDS011;27993;45.392;10.918;2024-02-23T13:49:28;5.17;;;3.43;;
42338;SDS011;27993;45.392;10.918;2024-02-23T13:51:58;5.57;;;3.10;;
42338;SDS011;27993;45.392;10.918;2024-02-23T13:54:29;7.10;;;4.20;;
42338;SDS011;27993;45.392;10.918;2024-02-23T13:57:00;5.50;;;3.37;;
42338;SDS011;27993;45.392;10.918;2024-02-23T13:59:30;5.77;;;3.50;;
42338;SDS011;27993;45.392;10.918;2024-02-23T14:02:01;5.20;;;3.77;;
42338;SDS011;27993;45.392;10.918;2024-02-23T14:04:32;5.87;;;3.92;;
42338;SDS011;27993;45.392;10.918;2024-02-23T14:07:03;7.10;;;4.40;;
42338;SDS011;27993;45.392;10.918;2024-02-23T14:09:34;6.53;;;5.00;;
42338;SDS011;27993;45.392;10.918;2024-02-23T14:12:05;10.57;;;5.97;;
42338;SDS011;27993;45.392;10.918;2024-02-23T14:14:36;10.60;;;5.97;;
42338;SDS011;27993;45.392;10.918;2024-02-23T14:17:06;8.20;;;4.80;;
42338;SDS011;27993;45.392;10.918;2024-02-23T14:19:37;7.83;;;4.90;;
42338;SDS011;27993;45.392;10.918;2024-02-23T14:22:08;8.13;;;5.90;;
42338;SDS011;27993;45.392;10.918;2024-02-23T14:24:38;8.13;;;5.63;;
42338;SDS011;27993;45.392;10.918;2024-02-23T14:29:41;9.05;;;6.07;;
42338;SDS011;27993;45.392;10.918;2024-02-23T14:32:17;8.07;;;6.60;;
42338;SDS011;27993;45.392;10.918;2024-02-23T14:34:48;9.82;;;6.60;;
42338;SDS011;27993;45.392;10.918;2024-02-23T14:37:19;13.70;;;8.20;;
42338;SDS011;27993;45.392;10.918;2024-02-23T14:39:50;14.33;;;8.50;;
42338;SDS011;27993;45.392;10.918;2024-02-23T14:42:21;12.33;;;8.20;;
42338;SDS011;27993;45.392;10.918;2024-02-23T14:44:51;11.00;;;7.10;;
42338;SDS011;27993;45.392;10.918;2024-02-23T14:47:22;10.47;;;8.53;;
42338;SDS011;27993;45.392;10.918;2024-02-23T14:49:53;11.43;;;8.07;;
42338;SDS011;27993;45.392;10.918;2024-02-23T14:52:23;17.27;;;7.60;;
42338;SDS011;27993;45.392;10.918;2024-02-23T14:54:54;11.83;;;8.87;;
42338;SDS011;27993;45.392;10.918;2024-02-23T14:57:27;12.30;;;8.85;;
42338;SDS011;27993;45.392;10.918;2024-02-23T14:59:58;17.93;;;8.47;;
42338;SDS011;27993;45.392;10.918;2024-02-23T15:02:29;17.63;;;8.37;;
42338;SDS011;27993;45.392;10.918;2024-02-23T15:04:59;13.77;;;9.37;;
42338;SDS011;27993;45.392;10.918;2024-02-23T15:07:36;14.52;;;8.93;;